Time;durP1;ratioP1;P1;durP2;ratioP2;P2;SDS_P1;SDS_P2;PMS_P1;PMS_P2;Temp;Humidity;BMP_temperature;BMP_pressure;BME280_temperature;BME280_humidity;BME280_pressure;Samples;Min_cycle;Max_cycle;Signal;HPM_P1;HPM_P2
2022/09/16 00:01:23;;;;;;;5.00;1.42;;;;;;;12.37;84.38;101003.06;5060823;28;20111;-75
2022/09/16 00:03:53;;;;;;;7.38;1.25;;;;;;;12.42;85.08;101001.72;5053600;28;20029;-75
2022/09/16 00:06:24;;;;;;;7.65;1.55;;;;;;;12.19;85.36;100984.69;5056560;28;20120;-75
2022/09/16 00:08:50;;;;;;;4.63;1.13;;;;;;;12.22;85.29;100995.66;5061555;28;20040;-75
2022/09/16 00:11:17;;;;;;;5.43;1.40;;;;;;;12.18;85.99;100977.84;5054693;28;20092;-76
2022/09/16 00:13:43;;;;;;;6.18;1.33;;;;;;;12.23;85.22;100986.91;5067127;28;20104;-75
2022/09/16 00:16:11;;;;;;;5.50;1.48;;;;;;;12.18;85.79;100993.44;5068772;28;20111;-75
2022/09/16 00:18:37;;;;;;;7.07;1.40;;;;;;;12.25;84.44;100996.34;5067664;28;20052;-75
2022/09/16 00:21:07;;;;;;;7.68;1.80;;;;;;;12.26;85.85;100997.97;5063210;28;20472;-76
2022/09/16 00:23:33;;;;;;;4.47;1.30;;;;;;;12.21;85.38;100988.81;5068292;28;20024;-75
2022/09/16 00:25:59;;;;;;;6.60;1.60;;;;;;;12.25;85.25;100993.75;5061933;28;20106;-75
2022/09/16 00:28:24;;;;;;;7.03;1.50;;;;;;;12.13;85.68;100985.22;5048319;28;20021;-75
2022/09/16 00:30:50;;;;;;;6.63;1.52;;;;;;;12.14;85.49;100982.47;5055108;28;20472;-75
2022/09/16 00:33:17;;;;;;;7.80;1.60;;;;;;;12.24;86.11;100987.72;5054168;28;20025;-75
2022/09/16 00:35:42;;;;;;;5.97;1.85;;;;;;;12.25;85.44;100983.34;5073970;28;20024;-75
2022/09/16 00:38:07;;;;;;;5.80;1.73;;;;;;;12.21;86.03;100993.16;5052514;28;20085;-75
2022/09/16 00:40:34;;;;;;;5.43;1.70;;;;;;;12.22;86.38;100985.25;5067777;28;20056;-75
2022/09/16 00:42:59;;;;;;;8.40;1.65;;;;;;;12.22;85.37;100990.47;5051233;28;20136;-76
2022/09/16 00:45:30;;;;;;;7.00;1.77;;;;;;;12.22;85.74;101000.03;5048137;28;20099;-75
2022/09/16 00:48:03;;;;;;;6.07;1.88;;;;;;;12.12;86.33;101000.00;5057831;28;20158;-75
2022/09/16 00:50:40;;;;;;;6.60;1.95;;;;;;;12.16;87.27;101003.97;5055240;28;20040;-75
2022/09/16 00:53:14;;;;;;;8.10;2.20;;;;;;;12.16;86.35;101006.59;5047883;28;20034;-75
2022/09/16 00:55:41;;;;;;;8.00;2.10;;;;;;;12.16;86.95;100996.19;5051142;28;20031;-76
2022/09/16 00:58:17;;;;;;;6.97;2.25;;;;;;;12.22;87.03;101006.06;5057084;28;20054;-76
2022/09/16 01:00:43;;;;;;;7.88;2.53;;;;;;;12.14;86.87;101013.66;5065447;28;20035;-75
2022/09/16 01:03:09;;;;;;;7.70;2.28;;;;;;;12.03;87.42;101000.75;5061195;28;20032;-76
2022/09/16 01:05:36;;;;;;;6.97;1.95;;;;;;;12.04;87.28;101007.59;5062428;28;20033;-76
2022/09/16 01:08:02;;;;;;;6.90;2.00;;;;;;;12.10;87.70;101007.09;5054786;28;20111;-75
2022/09/16 01:10:27;;;;;;;6.70;2.00;;;;;;;12.07;86.94;101002.16;5063708;28;20139;-76
2022/09/16 01:13:05;;;;;;;6.10;2.00;;;;;;;12.11;87.52;101013.94;5064614;28;20335;-76
2022/09/16 01:15:34;;;;;;;8.47;2.30;;;;;;;12.09;87.89;101010.63;5064665;28;20082;-76
2022/09/16 01:18:13;;;;;;;7.00;2.28;;;;;;;12.10;87.52;101007.09;5058113;28;20028;-76
2022/09/16 01:21:22;;;;;;;5.55;2.00;;;;;;;12.26;86.72;101017.00;5060493;28;21029;-76
2022/09/16 01:24:09;;;;;;;6.05;2.20;;;;;;;12.12;87.92;100994.78;4986405;28;20168;-76
2022/09/16 01:27:13;;;;;;;8.73;2.60;;;;;;;12.19;88.17;101001.09;4996768;28;20516;-75
2022/09/16 01:30:03;;;;;;;8.68;2.30;;;;;;;12.16;88.16;101001.38;5001852;28;20032;-76
2022/09/16 01:32:41;;;;;;;7.82;2.30;;;;;;;12.11;89.13;101008.75;5003021;28;20509;-75
2022/09/16 01:35:29;;;;;;;6.22;1.95;;;;;;;12.25;88.53;101014.53;5003422;28;20026;-75
2022/09/16 01:38:12;;;;;;;7.70;2.63;;;;;;;12.10;89.39;101017.50;5001498;28;20046;-76
2022/09/16 01:41:04;;;;;;;9.25;2.58;;;;;;;12.04;89.19;100992.00;5001368;28;20069;-76
2022/09/16 01:43:55;;;;;;;6.68;2.28;;;;;;;12.13;89.07;101001.63;4985446;28;20030;-76
2022/09/16 01:46:42;;;;;;;8.88;2.10;;;;;;;12.10;89.36;100996.72;5003696;28;20033;-79
2022/09/16 01:49:31;;;;;;;7.15;2.10;;;;;;;12.11;88.02;100987.94;5004855;28;20068;-75
2022/09/16 01:51:56;;;;;;;;;;;;;;;12.28;87.63;100988.28;4982792;28;20042;-75
2022/09/16 01:54:32;;;;;;;7.90;1.87;;;;;;;12.10;87.97;100983.72;5000080;28;19965;-75
2022/09/16 01:56:57;;;;;;;7.40;1.77;;;;;;;12.05;88.57;100982.44;5005335;28;20040;-75
2022/09/16 01:59:41;;;;;;;8.07;1.95;;;;;;;12.11;88.26;100987.94;5062831;28;20522;-75
2022/09/16 02:02:12;;;;;;;7.78;1.92;;;;;;;12.05;89.13;100993.66;5061271;28;20039;-76
2022/09/16 02:04:54;;;;;;;9.55;1.90;;;;;;;12.03;88.61;100990.38;5059711;28;20063;-75
2022/09/16 02:07:25;;;;;;;5.72;1.80;;;;;;;11.99;88.68;100994.19;5063177;28;20067;-76
2022/09/16 02:09:54;;;;;;;7.25;2.10;;;;;;;12.01;89.44;100992.28;5060962;28;20078;-76
2022/09/16 02:12:27;;;;;;;8.80;2.15;;;;;;;11.92;89.29;101003.44;5064886;28;20462;-76
2022/09/16 02:14:59;;;;;;;7.72;2.08;;;;;;;11.87;89.35;100982.22;5065918;28;20072;-76
2022/09/16 02:17:30;;;;;;;6.13;2.03;;;;;;;11.98;88.65;100992.53;5065203;28;20804;-76
2022/09/16 02:20:02;;;;;;;7.00;1.85;;;;;;;11.98;88.99;101002.91;5062225;28;20050;-76
2022/09/16 02:22:50;;;;;;;7.22;2.08;;;;;;;12.02;89.57;101004.31;5066720;28;20082;-76
2022/09/16 02:25:18;;;;;;;4.63;1.52;;;;;;;12.04;89.29;101002.41;5065938;28;20021;-76
2022/09/16 02:27:46;;;;;;;8.88;1.83;;;;;;;11.97;88.46;100993.47;5066672;28;20472;-76
2022/09/16 02:30:15;;;;;;;6.47;1.63;;;;;;;11.91;89.43;100996.59;5062607;28;20486;-77
2022/09/16 02:32:45;;;;;;;8.65;1.73;;;;;;;11.99;89.69;100999.41;5061406;28;20275;-76
2022/09/16 02:35:15;;;;;;;8.40;1.90;;;;;;;11.92;89.80;100993.03;5061638;28;20539;-75
2022/09/16 02:37:58;;;;;;;5.28;1.88;;;;;;;12.05;89.75;101004.06;5066467;28;20078;-75
2022/09/16 02:40:34;;;;;;;7.28;2.03;;;;;;;11.93;90.25;100986.91;5066632;28;20479;-76
2022/09/16 02:43:00;;;;;;;8.45;2.08;;;;;;;11.91;90.40;100988.81;5066530;28;20031;-76
2022/09/16 02:45:53;;;;;;;6.40;1.70;;;;;;;11.90;90.89;101002.75;5056796;28;20047;-76
2022/09/16 02:48:26;;;;;;;8.15;2.15;;;;;;;11.86;90.25;100983.16;5061507;28;20167;-76
2022/09/16 02:51:01;;;;;;;8.73;2.63;;;;;;;11.82;90.55;100984.41;5064663;28;20429;-75
2022/09/16 02:53:37;;;;;;;7.45;2.60;;;;;;;11.84;90.68;100985.91;5061158;28;20126;-77
2022/09/16 02:56:12;;;;;;;8.25;2.30;;;;;;;11.64;90.39;100982.38;5062587;28;20499;-77
2022/09/16 02:58:37;;;;;;;5.47;2.40;;;;;;;11.70;90.88;100984.44;5062135;28;20033;-76
2022/09/16 03:01:03;;;;;;;7.22;2.50;;;;;;;11.59;90.88;100975.91;5067721;28;20020;-76
2022/09/16 03:03:28;;;;;;;6.55;2.60;;;;;;;11.58;90.73;100980.25;5081057;28;20555;-76
2022/09/16 03:06:20;;;;;;;7.07;2.53;;;;;;;11.65;90.91;100991.78;5063303;28;20025;-76
2022/09/16 03:08:47;;;;;;;9.40;2.90;;;;;;;11.61;91.60;100995.59;5055338;28;20025;-75
2022/09/16 03:11:30;;;;;;;8.02;3.17;;;;;;;11.65;91.70;100986.59;5054439;28;20032;-76
2022/09/16 03:14:31;;;;;;;7.78;2.55;;;;;;;11.80;90.79;101001.84;5055505;28;20025;-75
2022/09/16 03:16:59;;;;;;;7.60;3.00;;;;;;;11.64;91.78;100997.94;5055687;28;20048;-75
2022/09/16 03:19:53;;;;;;;10.43;3.45;;;;;;;11.67;91.35;100979.50;5058133;28;20036;-76
2022/09/16 03:22:22;;;;;;;11.80;3.17;;;;;;;11.73;91.98;100987.72;5058587;28;20516;-76
2022/09/16 03:24:50;;;;;;;9.63;3.15;;;;;;;11.76;91.82;100995.28;5065742;28;20032;-76
2022/09/16 03:27:30;;;;;;;8.60;3.10;;;;;;;11.61;92.09;100990.41;5058037;28;20050;-76
2022/09/16 03:30:02;;;;;;;6.53;2.50;;;;;;;11.56;90.72;101002.13;5066826;28;20031;-77
2022/09/16 03:32:36;;;;;;;8.07;2.80;;;;;;;11.72;90.62;101001.69;5053621;28;20069;-76
2022/09/16 03:35:08;;;;;;;7.43;2.40;;;;;;;11.65;91.85;101006.56;5051641;28;20054;-76
2022/09/16 03:37:35;;;;;;;7.00;2.10;;;;;;;11.65;91.33;100997.00;5061235;28;20052;-76
2022/09/16 03:40:14;;;;;;;8.07;2.33;;;;;;;11.72;91.13;100991.28;5059035;28;20372;-76
2022/09/16 03:42:42;;;;;;;6.25;1.60;;;;;;;11.56;90.33;100992.56;5049323;28;20136;-76
2022/09/16 03:45:14;;;;;;;6.03;1.80;;;;;;;11.59;91.16;100988.91;5062566;28;20020;-76
2022/09/16 03:47:39;;;;;;;6.15;1.83;;;;;;;11.55;91.68;100980.53;5064171;28;20043;-76
2022/09/16 03:50:05;;;;;;;6.75;2.05;;;;;;;11.67;91.11;100979.50;5055771;28;20017;-76
2022/09/16 03:52:30;;;;;;;5.53;1.83;;;;;;;11.60;91.69;100973.16;5053516;28;20392;-75
2022/09/16 03:54:56;;;;;;;7.43;1.90;;;;;;;11.53;91.79;100979.00;5056962;28;20021;-76
2022/09/16 03:57:21;;;;;;;6.28;1.90;;;;;;;11.45;92.45;100974.44;5054695;28;20066;-76
2022/09/16 03:59:47;;;;;;;6.88;2.00;;;;;;;11.42;91.09;100969.50;5062062;28;20400;-76
2022/09/16 04:02:12;;;;;;;7.70;1.45;;;;;;;11.61;92.32;100977.41;5055200;28;20017;-75
2022/09/16 04:04:37;;;;;;;6.20;1.83;;;;;;;11.52;92.11;100975.56;5057612;28;20052;-76
2022/09/16 04:07:03;;;;;;;7.47;2.00;;;;;;;11.45;91.95;100969.25;5060388;28;20107;-75
2022/09/16 04:09:28;;;;;;;5.82;1.60;;;;;;;11.56;91.46;100979.56;5058393;28;20024;-75
2022/09/16 04:11:53;;;;;;;4.32;1.50;;;;;;;11.48;90.44;100974.19;5057713;28;20114;-74
2022/09/16 04:14:19;;;;;;;6.75;1.90;;;;;;;11.46;91.03;100981.28;5059034;28;20096;-74
2022/09/16 04:16:44;;;;;;;5.38;1.67;;;;;;;11.36;92.31;100981.22;5056458;28;20090;-75
2022/09/16 04:19:12;;;;;;;6.05;1.70;;;;;;;11.42;92.44;100985.09;5056159;28;20025;-76
2022/09/16 04:21:38;;;;;;;10.40;2.35;;;;;;;11.33;92.07;100993.63;5059903;28;20017;-75
2022/09/16 04:24:04;;;;;;;3.78;1.55;;;;;;;11.31;92.34;101003.31;5056642;28;20025;-75
2022/09/16 04:26:29;;;;;;;5.88;1.80;;;;;;;11.43;93.02;101017.91;5056034;28;20035;-75
2022/09/16 04:28:54;;;;;;;5.03;1.85;;;;;;;11.52;92.63;101004.13;5057300;28;20469;-74
2022/09/16 04:31:20;;;;;;;5.13;2.05;;;;;;;11.41;92.95;100993.81;5056012;28;20028;-75
2022/09/16 04:33:45;;;;;;;6.47;2.00;;;;;;;11.30;93.79;100999.09;5056519;28;20024;-76
2022/09/16 04:36:17;;;;;;;6.47;2.15;;;;;;;11.33;93.95;100989.25;5055589;28;20017;-76
2022/09/16 04:38:44;;;;;;;5.88;2.00;;;;;;;11.37;93.37;100987.25;5060035;28;20131;-75
2022/09/16 04:41:12;;;;;;;6.25;2.00;;;;;;;11.44;93.55;100972.78;5063099;28;20151;-76
2022/09/16 04:43:38;;;;;;;7.60;1.95;;;;;;;11.39;93.51;100964.56;5062071;28;20032;-75
2022/09/16 04:46:04;;;;;;;7.72;2.00;;;;;;;11.49;93.24;100972.41;5061168;28;20033;-76
2022/09/16 04:48:30;;;;;;;5.85;1.35;;;;;;;11.29;92.09;100968.84;5061072;28;20372;-74
2022/09/16 04:51:07;;;;;;;4.20;1.50;;;;;;;11.36;93.04;100959.63;5061239;28;20073;-75
2022/09/16 04:53:33;;;;;;;6.33;1.47;;;;;;;11.30;92.26;100965.34;5061415;28;20123;-75
2022/09/16 04:56:07;;;;;;;5.88;1.52;;;;;;;11.23;92.89;100953.78;5056040;28;20516;-75
2022/09/16 04:58:33;;;;;;;5.47;1.60;;;;;;;11.33;91.88;100959.88;5058875;28;20028;-74
2022/09/16 05:01:06;;;;;;;4.75;1.52;;;;;;;11.35;92.55;100963.97;5064515;28;20032;-73
2022/09/16 05:03:32;;;;;;;5.30;1.35;;;;;;;11.32;92.86;100960.81;5055641;28;20037;-75
2022/09/16 05:06:06;;;;;;;5.93;1.40;;;;;;;11.16;92.91;100954.28;5062670;28;20032;-75
2022/09/16 05:08:34;;;;;;;5.43;1.50;;;;;;;11.25;92.89;100963.09;5052793;28;20071;-74
2022/09/16 05:11:10;;;;;;;4.20;1.35;;;;;;;11.35;92.68;100957.97;5060530;28;20383;-75
2022/09/16 05:13:37;;;;;;;6.25;1.73;;;;;;;11.22;93.02;100962.53;5054669;28;20480;-76
2022/09/16 05:16:05;;;;;;;7.57;1.50;;;;;;;11.27;93.83;100962.97;5057839;28;20111;-76
2022/09/16 05:18:30;;;;;;;3.83;1.27;;;;;;;11.21;93.50;100950.50;5060100;28;20042;-74
2022/09/16 05:20:58;;;;;;;6.43;1.50;;;;;;;11.25;94.08;100959.69;5067294;28;20047;-75
2022/09/16 05:23:23;;;;;;;5.88;1.42;;;;;;;11.16;93.72;100956.88;5059182;28;20070;-75
2022/09/16 05:25:48;;;;;;;5.00;1.33;;;;;;;11.21;93.31;100950.50;5055758;28;20017;-75
2022/09/16 05:28:14;;;;;;;3.55;1.30;;;;;;;11.17;93.16;100966.31;5056325;28;20028;-75
2022/09/16 05:30:39;;;;;;;5.97;1.50;;;;;;;11.19;93.46;100957.59;5058398;28;20020;-76
2022/09/16 05:33:04;;;;;;;5.28;1.02;;;;;;;11.15;92.55;100970.81;5054494;28;20467;-75
2022/09/16 05:35:30;;;;;;;4.90;1.23;;;;;;;11.22;91.84;100975.50;5058205;28;20503;-75
2022/09/16 05:37:55;;;;;;;4.32;1.27;;;;;;;11.11;92.54;100982.38;5058084;28;20072;-74
2022/09/16 05:40:21;;;;;;;3.67;1.02;;;;;;;11.14;91.53;100982.16;5062184;28;20514;-75
2022/09/16 05:42:50;;;;;;;5.43;1.40;;;;;;;10.92;92.71;100977.06;5050210;28;20028;-75
2022/09/16 05:45:15;;;;;;;6.05;1.45;;;;;;;10.97;92.40;100980.09;5057647;28;20409;-74
2022/09/16 05:47:40;;;;;;;4.97;1.23;;;;;;;11.06;93.12;100988.91;5053486;28;20500;-75
2022/09/16 05:50:06;;;;;;;5.38;1.40;;;;;;;11.03;93.17;100979.59;5059148;28;20020;-77
2022/09/16 05:52:32;;;;;;;4.63;1.23;;;;;;;11.07;93.50;100973.22;5056840;28;20061;-75
2022/09/16 05:54:57;;;;;;;5.38;1.60;;;;;;;11.10;93.39;100985.94;5049809;28;20035;-74
2022/09/16 05:57:22;;;;;;;5.30;1.20;;;;;;;11.19;93.98;100984.38;5057391;28;20056;-74
2022/09/16 05:59:48;;;;;;;4.90;1.30;;;;;;;11.13;94.51;100984.88;5049092;28;20032;-75
2022/09/16 06:02:13;;;;;;;7.18;1.80;;;;;;;11.19;94.06;100978.38;5058361;28;20021;-75
2022/09/16 06:04:38;;;;;;;5.10;1.30;;;;;;;11.08;94.31;100972.28;5053661;28;20024;-74
2022/09/16 06:07:06;;;;;;;4.00;1.02;;;;;;;11.25;94.31;100980.47;5053446;28;20021;-75
2022/09/16 06:09:31;;;;;;;5.47;1.77;;;;;;;11.18;94.63;100982.72;5058095;28;20040;-74
2022/09/16 06:11:57;;;;;;;6.60;2.00;;;;;;;11.20;94.57;100995.59;5057821;28;20511;-75
2022/09/16 06:14:22;;;;;;;6.63;1.98;;;;;;;11.21;95.65;100992.03;5057172;28;20032;-75
2022/09/16 06:16:48;;;;;;;5.95;1.83;;;;;;;11.24;95.39;101002.16;5053451;28;20021;-75
2022/09/16 06:19:16;;;;;;;6.45;2.00;;;;;;;11.23;94.75;101009.13;5059870;28;20107;-77
2022/09/16 06:21:43;;;;;;;5.65;2.03;;;;;;;11.35;94.76;101015.09;5066008;28;20036;-74
2022/09/16 06:24:09;;;;;;;5.55;2.00;;;;;;;11.29;94.74;101021.59;5063639;28;20024;-74
2022/09/16 06:26:36;;;;;;;5.68;1.63;;;;;;;11.30;96.03;101018.09;5070051;28;20032;-75
2022/09/16 06:29:02;;;;;;;5.00;2.13;;;;;;;11.27;95.65;101013.13;5070716;28;20059;-74
2022/09/16 06:31:28;;;;;;;5.95;2.20;;;;;;;11.35;95.02;101025.47;5069942;28;20064;-77
2022/09/16 06:33:54;;;;;;;6.97;2.20;;;;;;;11.29;94.75;101026.81;5060787;28;20480;-75
2022/09/16 06:36:23;;;;;;;6.63;2.00;;;;;;;11.21;94.25;101030.97;5053120;28;20037;-75
2022/09/16 06:38:50;;;;;;;4.97;1.40;;;;;;;11.26;93.61;101026.25;5058527;28;20424;-74
2022/09/16 06:41:16;;;;;;;6.32;1.90;;;;;;;11.09;92.75;101010.25;5059405;28;20028;-74
2022/09/16 06:43:43;;;;;;;5.30;1.80;;;;;;;11.06;93.67;101026.06;5054031;28;20020;-74
2022/09/16 06:46:17;;;;;;;6.18;1.70;;;;;;;11.11;93.00;101023.94;5065435;28;20410;-73
2022/09/16 06:48:44;;;;;;;5.60;1.63;;;;;;;11.14;92.98;101028.88;5067527;28;20395;-77
2022/09/16 06:51:13;;;;;;;7.85;1.90;;;;;;;11.20;93.55;101019.78;5056613;28;20407;-74
2022/09/16 06:53:38;;;;;;;;;;;;;;;11.38;92.94;101013.06;5059367;28;20472;-74
2022/09/16 06:56:07;;;;;;;7.05;2.00;;;;;;;11.34;94.50;101018.63;5051605;28;19924;-74
2022/09/16 06:58:34;;;;;;;5.30;1.52;;;;;;;11.42;94.28;101021.44;5058998;28;20123;-74
2022/09/16 07:01:07;;;;;;;5.43;1.80;;;;;;;11.46;94.12;101011.63;5056840;28;20039;-75
2022/09/16 07:03:36;;;;;;;5.30;1.80;;;;;;;11.48;94.55;101010.56;5065143;28;20060;-76
2022/09/16 07:06:02;;;;;;;5.72;1.50;;;;;;;11.50;93.54;101008.66;5059156;28;20021;-74
2022/09/16 07:08:28;;;;;;;5.45;1.67;;;;;;;11.58;93.30;101006.22;5060078;28;20094;-74
2022/09/16 07:10:59;;;;;;;4.15;1.38;;;;;;;11.68;92.83;101024.47;5063599;28;20025;-74
2022/09/16 07:13:24;;;;;;;5.32;1.40;;;;;;;11.75;93.58;101017.00;5057923;28;20035;-73
2022/09/16 07:15:50;;;;;;;5.50;1.50;;;;;;;11.80;93.04;101014.84;5060874;28;20107;-74
2022/09/16 07:18:15;;;;;;;4.93;1.25;;;;;;;11.83;91.65;101025.84;5052614;28;20473;-74
2022/09/16 07:20:41;;;;;;;5.25;1.38;;;;;;;11.85;92.40;101020.50;5065497;28;20029;-74
2022/09/16 07:23:06;;;;;;;4.72;1.20;;;;;;;11.97;92.78;101022.06;5064422;28;20032;-73
2022/09/16 07:25:31;;;;;;;5.63;1.27;;;;;;;11.91;92.40;101012.19;5061864;28;20024;-73
2022/09/16 07:27:57;;;;;;;5.32;1.20;;;;;;;11.98;91.54;101021.13;5062648;28;20024;-75
2022/09/16 07:30:22;;;;;;;3.78;1.20;;;;;;;12.05;91.37;101014.47;5059090;28;20452;-74
2022/09/16 07:32:47;;;;;;;5.63;1.50;;;;;;;12.14;92.40;101020.66;5062937;28;20558;-73
2022/09/16 07:35:13;;;;;;;3.53;1.25;;;;;;;12.15;90.92;101020.50;5063386;28;20027;-74
2022/09/16 07:37:38;;;;;;;5.47;1.50;;;;;;;12.23;91.41;101017.28;5060183;28;20476;-74
2022/09/16 07:40:04;;;;;;;4.63;1.30;;;;;;;12.36;91.15;101022.25;5062598;28;20460;-74
2022/09/16 07:42:30;;;;;;;4.70;1.30;;;;;;;12.42;92.19;101016.50;5060043;28;20029;-75
2022/09/16 07:44:55;;;;;;;6.07;1.55;;;;;;;12.53;91.00;101016.41;5061336;28;20433;-75
2022/09/16 07:47:21;;;;;;;8.10;1.50;;;;;;;12.55;90.67;101005.88;5059097;28;20029;-74
2022/09/16 07:49:46;;;;;;;8.13;1.70;;;;;;;12.58;88.39;101006.44;5061806;28;20024;-75
2022/09/16 07:52:12;;;;;;;7.65;1.42;;;;;;;12.70;88.60;101017.53;5054331;28;20875;-74
2022/09/16 07:54:37;;;;;;;6.43;1.30;;;;;;;12.63;86.15;101019.03;5061057;28;20028;-74
2022/09/16 07:57:03;;;;;;;4.50;1.17;;;;;;;12.64;84.99;101023.28;5065150;28;20463;-74
2022/09/16 07:59:28;;;;;;;6.47;1.50;;;;;;;12.66;86.12;101024.78;5060379;28;20476;-74
2022/09/16 08:01:53;;;;;;;4.88;1.27;;;;;;;12.63;85.55;101030.28;5065307;28;20044;-74
2022/09/16 08:04:19;;;;;;;5.00;1.35;;;;;;;12.67;85.64;101036.88;5058274;28;20059;-75
2022/09/16 08:06:45;;;;;;;7.30;1.42;;;;;;;12.75;86.39;101029.19;5062004;28;20057;-74
2022/09/16 08:09:10;;;;;;;6.25;1.40;;;;;;;12.86;85.90;101040.47;5057003;28;20029;-75
2022/09/16 08:11:35;;;;;;;6.60;1.40;;;;;;;12.94;85.91;101038.00;5048402;28;20033;-75
2022/09/16 08:14:01;;;;;;;6.28;1.38;;;;;;;12.92;84.64;101038.13;5061701;28;20031;-74
2022/09/16 08:16:27;;;;;;;7.20;1.58;;;;;;;12.96;83.63;101047.34;5055098;28;20452;-74
2022/09/16 08:18:54;;;;;;;7.25;1.83;;;;;;;12.98;83.90;101052.41;5054916;28;20031;-74
2022/09/16 08:21:23;;;;;;;7.57;1.63;;;;;;;12.99;84.25;101052.25;5054573;28;20016;-74
2022/09/16 08:23:48;;;;;;;8.50;1.45;;;;;;;13.14;84.40;101055.28;5065419;28;20118;-74
2022/09/16 08:26:16;;;;;;;7.28;1.48;;;;;;;13.20;84.32;101048.72;5067548;28;20100;-76
2022/09/16 08:28:43;;;;;;;6.68;1.45;;;;;;;13.23;84.27;101028.44;5062972;28;20028;-75
2022/09/16 08:31:09;;;;;;;6.10;1.40;;;;;;;13.39;82.77;101045.31;5052801;28;20036;-75
2022/09/16 08:33:34;;;;;;;5.38;1.20;;;;;;;13.45;81.56;101040.38;5061226;28;20396;-76
2022/09/16 08:36:07;;;;;;;6.38;1.70;;;;;;;13.50;82.14;101039.97;5058933;28;20547;-75
2022/09/16 08:38:33;;;;;;;6.43;1.30;;;;;;;13.54;82.51;101047.38;5061323;28;20060;-75
2022/09/16 08:41:27;;;;;;;5.53;1.40;;;;;;;13.67;83.47;101049.69;5068104;28;20500;-75
2022/09/16 08:43:53;;;;;;;5.57;1.52;;;;;;;13.53;80.76;101053.53;5067787;28;20044;-75
2022/09/16 08:46:29;;;;;;;4.72;1.30;;;;;;;13.57;80.78;101051.47;5064516;28;20058;-75
2022/09/16 08:49:05;;;;;;;5.53;1.33;;;;;;;13.74;81.58;101058.56;5048179;28;20029;-75
2022/09/16 08:51:31;;;;;;;5.00;1.30;;;;;;;13.67;81.31;101052.28;5048888;28;20032;-75
2022/09/16 08:54:05;;;;;;;6.20;1.50;;;;;;;13.66;81.86;101060.25;5066276;28;20618;-75
2022/09/16 08:56:35;;;;;;;6.72;1.55;;;;;;;13.75;81.61;101059.38;5064499;28;20086;-75
2022/09/16 08:59:03;;;;;;;5.75;1.33;;;;;;;13.64;77.55;101049.94;5058705;28;20029;-75
2022/09/16 09:01:33;;;;;;;6.43;1.38;;;;;;;13.78;77.94;101054.72;5059865;28;20032;-74
2022/09/16 09:03:59;;;;;;;5.38;1.27;;;;;;;13.84;76.88;101042.09;5056155;28;20017;-75
2022/09/16 09:06:54;;;;;;;5.35;1.17;;;;;;;14.01;76.89;101055.22;5048314;28;20021;-75
2022/09/16 09:09:42;;;;;;;4.95;0.90;;;;;;;13.91;72.29;101058.81;5056058;28;20114;-74
2022/09/16 09:12:37;;;;;;;5.43;1.00;;;;;;;13.86;72.56;101058.41;5054321;28;20488;-75
2022/09/16 09:15:12;;;;;;;3.55;1.00;;;;;;;13.87;76.55;101057.44;5067275;28;20473;-76
2022/09/16 09:17:50;;;;;;;5.57;1.20;;;;;;;13.76;78.92;101056.66;5067170;28;20495;-78
2022/09/16 09:20:37;;;;;;;5.43;1.33;;;;;;;13.52;78.35;101054.47;5066938;28;20027;-75
2022/09/16 09:23:18;;;;;;;6.15;1.02;;;;;;;13.52;76.85;101069.28;5053938;28;20435;-76
2022/09/16 09:25:48;;;;;;;5.35;1.13;;;;;;;13.24;76.82;101076.97;5065260;28;20039;-76
2022/09/16 09:28:35;;;;;;;3.20;0.90;;;;;;;13.42;76.36;101084.09;5048267;28;20040;-77
2022/09/16 09:31:11;;;;;;;2.35;0.80;;;;;;;13.22;75.94;101089.31;5065246;28;20032;-76
2022/09/16 09:33:49;;;;;;;4.57;1.20;;;;;;;13.20;76.24;101091.22;5067212;28;20020;-77
2022/09/16 09:36:27;;;;;;;2.78;0.80;;;;;;;13.06;74.20;101088.97;5065355;28;20365;-77
2022/09/16 09:39:01;;;;;;;4.68;1.00;;;;;;;12.89;73.27;101095.66;5061437;28;20067;-75
2022/09/16 09:41:35;;;;;;;1.45;0.65;;;;;;;12.90;75.21;101089.53;5047046;28;20056;-76
2022/09/16 09:44:00;;;;;;;2.97;0.80;;;;;;;12.89;77.38;101092.25;5065201;28;20095;-76
2022/09/16 09:46:47;;;;;;;3.22;0.60;;;;;;;12.83;75.55;101097.97;5052565;28;20107;-75
2022/09/16 09:49:25;;;;;;;2.08;0.73;;;;;;;12.53;75.83;101075.44;5063992;28;20150;-76
2022/09/16 09:51:53;;;;;;;3.60;1.10;;;;;;;12.55;77.21;101092.53;5058716;28;20020;-76
2022/09/16 09:54:26;;;;;;;3.60;0.80;;;;;;;12.62;76.50;101091.09;5067689;28;20090;-76
2022/09/16 09:57:18;;;;;;;3.70;0.70;;;;;;;12.54;75.89;101088.31;5059815;28;20037;-75
2022/09/16 10:00:10;;;;;;;4.03;0.80;;;;;;;12.78;77.49;101085.34;5062695;28;20062;-76
2022/09/16 10:02:39;;;;;;;4.55;1.10;;;;;;;12.74;75.10;101084.81;5046501;28;20090;-76
2022/09/16 10:05:06;;;;;;;2.20;0.80;;;;;;;12.82;77.23;101070.31;5061783;28;20113;-77
2022/09/16 10:07:36;;;;;;;3.53;0.70;;;;;;;12.69;73.17;101071.38;5064598;28;20094;-76
2022/09/16 10:10:14;;;;;;;3.28;0.93;;;;;;;12.79;75.30;101062.75;5060790;28;20493;-76
2022/09/16 10:12:40;;;;;;;4.72;0.88;;;;;;;13.00;75.82;101073.91;5053251;28;20028;-76
2022/09/16 10:15:21;;;;;;;4.85;1.13;;;;;;;13.18;76.20;101076.66;5056814;28;20036;-76
2022/09/16 10:17:51;;;;;;;4.50;0.88;;;;;;;13.40;76.90;101080.81;5057300;28;20063;-76
2022/09/16 10:20:36;;;;;;;4.97;1.05;;;;;;;13.45;75.31;101078.63;5055690;28;20025;-77
2022/09/16 10:23:09;;;;;;;2.90;0.90;;;;;;;13.47;74.50;101071.50;5056659;28;20036;-77
2022/09/16 10:25:35;;;;;;;4.15;1.02;;;;;;;13.70;73.10;101067.63;5061450;28;20032;-77
2022/09/16 10:28:04;;;;;;;2.92;0.88;;;;;;;13.82;74.83;101069.13;5058217;28;20039;-76
2022/09/16 10:30:47;;;;;;;2.95;0.88;;;;;;;13.91;74.45;101079.69;5057502;28;20066;-76
2022/09/16 10:33:21;;;;;;;4.07;0.80;;;;;;;13.82;70.96;101056.09;5057707;28;20139;-77
2022/09/16 10:36:07;;;;;;;3.88;1.00;;;;;;;13.95;73.49;101054.97;5060088;28;20039;-76
2022/09/16 10:38:47;;;;;;;3.28;0.90;;;;;;;14.02;69.83;101067.28;5059531;28;20084;-76
2022/09/16 10:41:19;;;;;;;3.03;0.80;;;;;;;14.07;70.65;101059.88;5061106;28;20028;-76
2022/09/16 10:43:52;;;;;;;4.07;1.05;;;;;;;14.33;72.56;101054.81;5064295;28;20077;-77
2022/09/16 10:46:18;;;;;;;2.78;0.80;;;;;;;14.32;69.62;101058.41;5064032;28;20479;-77
2022/09/16 10:48:45;;;;;;;4.32;1.45;;;;;;;14.25;69.33;101041.69;5063370;28;20016;-77
2022/09/16 10:51:43;;;;;;;5.18;0.90;;;;;;;14.51;70.80;101059.34;5063144;28;20035;-76
2022/09/16 10:54:21;;;;;;;;;;;;;;;14.59;71.78;101059.41;5033159;28;20289;-76
2022/09/16 10:56:50;;;;;;;4.32;0.90;;;;;;;14.51;67.58;101067.16;5057874;28;19923;-76
2022/09/16 10:59:15;;;;;;;4.15;0.90;;;;;;;14.55;67.85;101058.88;5055303;28;20067;-76
2022/09/16 11:01:56;;;;;;;3.50;0.80;;;;;;;14.63;67.24;101060.78;5055625;28;20041;-77
2022/09/16 11:04:39;;;;;;;2.85;0.82;;;;;;;14.59;65.30;101059.41;5055434;28;20064;-76
2022/09/16 11:07:27;;;;;;;3.78;0.95;;;;;;;14.70;66.62;101066.22;5053249;28;20032;-76
2022/09/16 11:10:35;;;;;;;2.72;0.90;;;;;;;14.88;67.36;101065.28;5055756;28;20029;-74
2022/09/16 11:13:07;;;;;;;4.50;1.00;;;;;;;14.52;64.90;101074.03;5001277;28;20096;-75
2022/09/16 11:16:00;;;;;;;3.65;0.90;;;;;;;14.47;66.52;101077.06;4998904;28;20519;-76
2022/09/16 11:19:03;;;;;;;4.20;1.10;;;;;;;14.44;65.98;101090.34;5004084;28;20124;-75
2022/09/16 11:22:04;;;;;;;4.72;1.02;;;;;;;14.21;68.76;101100.31;5002394;28;20053;-76
2022/09/16 11:24:50;;;;;;;3.47;0.68;;;;;;;13.94;69.09;101110.69;5001269;28;20037;-76
2022/09/16 11:27:34;;;;;;;2.35;0.75;;;;;;;13.70;69.77;101114.53;5005195;28;20025;-77
2022/09/16 11:30:07;;;;;;;1.88;0.57;;;;;;;13.38;70.19;101124.44;5003662;28;20030;-76
2022/09/16 11:32:44;;;;;;;2.92;0.80;;;;;;;13.25;71.82;101119.50;5004639;28;20524;-75
2022/09/16 11:35:25;;;;;;;2.95;0.93;;;;;;;13.01;75.52;101118.03;5004603;28;20057;-76
2022/09/16 11:38:12;;;;;;;3.10;0.75;;;;;;;13.05;75.91;101118.59;5003170;28;20077;-76
2022/09/16 11:40:43;;;;;;;3.53;0.90;;;;;;;12.66;75.90;101108.06;5005968;28;20056;-76
2022/09/16 11:43:24;;;;;;;4.35;0.90;;;;;;;12.61;74.31;101110.22;5006946;28;20041;-76
2022/09/16 11:46:01;;;;;;;2.83;0.80;;;;;;;12.49;76.65;101106.91;5007450;28;20057;-76
2022/09/16 11:48:59;;;;;;;5.03;0.90;;;;;;;12.57;77.97;101114.06;5006762;28;20522;-76